createdAt,value
2019-04-20T00:01:40.782Z,101932.83
2019-04-20T00:04:20.703Z,101935.19
2019-04-20T00:06:50.123Z,101937.12
2019-04-20T00:09:26.014Z,101935.52
2019-04-20T00:12:06.263Z,101933.52
2019-04-20T00:14:32.091Z,101935.41
2019-04-20T00:17:02.950Z,101925.20
2019-04-20T00:19:40.451Z,101927.25
2019-04-20T00:22:15.234Z,101917.53
2019-04-20T00:25:04.049Z,101910.39
2019-04-20T00:27:55.418Z,101922.44
2019-04-20T00:30:32.543Z,101914.39
2019-04-20T00:32:53.250Z,101908.83
2019-04-20T00:35:14.760Z,101913.74
2019-04-20T00:37:48.777Z,101904.48
2019-04-20T00:40:21.527Z,101916.62
2019-04-20T00:42:55.654Z,101914.56
2019-04-20T00:45:30.558Z,101919.96
2019-04-20T00:48:08.109Z,101914.95
2019-04-20T00:50:53.968Z,101916.69
2019-04-20T00:53:19.846Z,101915.05
2019-04-20T00:55:44.497Z,101915.66
2019-04-20T00:58:23.396Z,101916.27
2019-04-20T01:01:18.896Z,101914.77
2019-04-20T01:03:39.066Z,101912.75
2019-04-20T01:06:23.145Z,101914.67
2019-04-20T01:08:48.478Z,101907.36
2019-04-20T01:11:27.000Z,101911.39
2019-04-20T01:14:00.553Z,101902.81
2019-04-20T01:16:36.597Z,101908.16
2019-04-20T01:19:01.782Z,101904.02
2019-04-20T01:21:35.478Z,101904.13
2019-04-20T01:24:08.884Z,101900.38
2019-04-20T01:26:43.676Z,101898.32
2019-04-20T01:29:25.015Z,101893.25
2019-04-20T01:32:03.619Z,101894.65
2019-04-20T01:34:37.950Z,101887.84
2019-04-20T01:37:14.462Z,101887.89
2019-04-20T01:39:37.045Z,101887.84
2019-04-20T01:42:04.595Z,101896.23
2019-04-20T01:44:41.922Z,101892.38
2019-04-20T01:47:11.609Z,101892.42
2019-04-20T01:49:48.633Z,101889.08
2019-04-20T01:52:27.099Z,101894.41
2019-04-20T01:55:22.750Z,101895.50
2019-04-20T01:57:59.876Z,101893.52
2019-04-20T02:00:44.853Z,101892.42
2019-04-20T02:03:55.488Z,101890.48
2019-04-20T02:06:28.634Z,101895.19
2019-04-20T02:09:06.721Z,101887.46
2019-04-20T02:11:40.144Z,101883.12
2019-04-20T02:14:11.994Z,101884.55
2019-04-20T02:16:48.069Z,101884.25
2019-04-20T02:19:30.702Z,101884.98
2019-04-20T02:22:03.952Z,101879.02
2019-04-20T02:24:25.773Z,101879.37
2019-04-20T02:26:57.934Z,101879.95
2019-04-20T02:29:50.733Z,101883.22
2019-04-20T02:32:27.248Z,101879.79
2019-04-20T02:35:34.617Z,101884.67
2019-04-20T02:38:36.856Z,101884.33
2019-04-20T02:40:50.574Z,101887.48
2019-04-20T02:43:39.628Z,101885.47
2019-04-20T02:45:57.597Z,101879.02
2019-04-20T02:48:39.387Z,101879.20
2019-04-20T02:53:53.623Z,101879.09
2019-04-20T02:56:21.866Z,101883.12
2019-04-20T02:59:13.182Z,101874.97
2019-04-20T03:01:55.305Z,101879.41
2019-04-20T03:04:01.888Z,101873.45
2019-04-20T03:06:46.718Z,101880.94
2019-04-20T03:09:29.875Z,101884.07
2019-04-20T03:12:06.151Z,101879.84
2019-04-20T03:14:30.393Z,101874.29
2019-04-20T03:17:10.312Z,101877.36
2019-04-20T03:19:37.606Z,101881.31
2019-04-20T03:22:24.579Z,101875.73
2019-04-20T03:24:54.439Z,101880.20
2019-04-20T03:27:33.107Z,101886.41
2019-04-20T03:31:04.036Z,101893.00
2019-04-20T03:33:24.452Z,101887.84
2019-04-20T03:35:55.197Z,101890.09
2019-04-20T03:38:06.085Z,101891.05
2019-04-20T03:40:29.997Z,101884.97
2019-04-20T03:42:52.611Z,101888.43
2019-04-20T03:45:26.553Z,101888.40
2019-04-20T03:48:09.857Z,101883.17
2019-04-20T03:50:51.146Z,101896.62
2019-04-20T03:53:39.736Z,101898.71
2019-04-20T03:55:58.882Z,101895.64
2019-04-20T03:58:55.467Z,101893.39
2019-04-20T04:02:20.074Z,101896.27
2019-04-20T04:04:38.955Z,101898.97
2019-04-20T04:06:56.544Z,101897.99
2019-04-20T04:09:37.059Z,101903.19
2019-04-20T04:12:54.750Z,101893.59
2019-04-20T04:15:27.529Z,101903.15
2019-04-20T04:18:07.401Z,101898.32
2019-04-20T04:20:41.851Z,101894.76
2019-04-20T04:23:24.583Z,101895.93
2019-04-20T04:26:00.841Z,101891.52
2019-04-20T04:28:31.416Z,101892.62
2019-04-20T04:31:23.307Z,101899.05
2019-04-20T04:36:15.499Z,101897.39
2019-04-20T04:38:57.179Z,101898.59
2019-04-20T04:41:38.036Z,101898.37
2019-04-20T04:43:53.798Z,101902.58
2019-04-20T04:46:12.374Z,101903.73
2019-04-20T04:48:47.481Z,101897.82
2019-04-20T04:51:22.735Z,101898.91
2019-04-20T04:53:59.802Z,101899.56
2019-04-20T04:56:26.990Z,101898.48
2019-04-20T04:59:00.293Z,101897.06
2019-04-20T05:01:35.344Z,101892.05
2019-04-20T05:04:25.185Z,101895.03
2019-04-20T05:06:53.552Z,101898.13
2019-04-20T05:09:15.310Z,101900.83
2019-04-20T05:11:50.720Z,101900.11
2019-04-20T05:14:26.256Z,101902.02
2019-04-20T05:17:07.367Z,101898.16
2019-04-20T05:19:49.792Z,101904.59
2019-04-20T05:22:24.910Z,101900.34
2019-04-20T05:25:04.674Z,101896.46
2019-04-20T05:27:57.240Z,101894.22
2019-04-20T05:30:10.112Z,101890.23
2019-04-20T05:32:51.418Z,101895.92
2019-04-20T05:35:37.859Z,101894.69
2019-04-20T05:38:11.914Z,101896.41
2019-04-20T05:40:46.214Z,101898.99
2019-04-20T05:43:24.307Z,101904.09
2019-04-20T05:45:50.207Z,101892.34
2019-04-20T05:48:24.765Z,101902.31
2019-04-20T05:51:01.781Z,101899.73
2019-04-20T05:53:42.657Z,101899.89
2019-04-20T05:56:10.639Z,101898.77
2019-04-20T05:58:45.412Z,101901.53
2019-04-20T06:01:22.942Z,101891.92
2019-04-20T06:03:49.040Z,101895.81
2019-04-20T06:06:27.437Z,101887.53
2019-04-20T06:09:06.854Z,101888.65
2019-04-20T06:11:34.987Z,101882.88
2019-04-20T06:14:10.154Z,101883.14
2019-04-20T06:17:21.209Z,101878.82
2019-04-20T06:19:58.245Z,101881.16
2019-04-20T06:22:35.879Z,101885.19
2019-04-20T06:25:31.299Z,101879.48
2019-04-20T06:27:45.051Z,101881.95
2019-04-20T06:30:13.653Z,101874.08
2019-04-20T06:34:01.436Z,101875.47
2019-04-20T06:36:43.133Z,101879.62
2019-04-20T06:39:02.271Z,101878.50
2019-04-20T06:41:44.698Z,101876.42
2019-04-20T06:44:08.209Z,101874.67
2019-04-20T06:46:45.601Z,101877.50
2019-04-20T06:49:18.295Z,101878.14
2019-04-20T06:51:59.141Z,101877.80
2019-04-20T06:54:20.002Z,101877.92
2019-04-20T06:57:07.243Z,101877.33
2019-04-20T06:59:54.999Z,101878.63
2019-04-20T07:02:21.916Z,101881.72
2019-04-20T07:04:49.615Z,101876.60
2019-04-20T07:10:02.603Z,101886.85
2019-04-20T07:12:24.100Z,101880.16
2019-04-20T07:14:51.911Z,101880.02
2019-04-20T07:17:54.690Z,101870.70
2019-04-20T07:20:59.510Z,101873.36
2019-04-20T07:23:32.940Z,101866.09
2019-04-20T07:26:09.537Z,101870.70
2019-04-20T07:28:41.337Z,101871.52
2019-04-20T07:31:08.267Z,101864.55
2019-04-20T07:33:50.967Z,101869.95
2019-04-20T07:36:24.434Z,101875.06
2019-04-20T07:38:54.086Z,101865.97
2019-04-20T07:41:32.925Z,101868.02
2019-04-20T07:44:24.823Z,101871.04
2019-04-20T07:46:49.913Z,101871.89
2019-04-20T07:49:08.665Z,101870.27
2019-04-20T07:51:26.618Z,101874.78
2019-04-20T07:54:24.591Z,101869.50
2019-04-20T07:56:48.022Z,101870.98
2019-04-20T07:59:14.251Z,101867.36
2019-04-20T08:02:08.523Z,101869.62
2019-04-20T08:04:36.402Z,101862.00
2019-04-20T08:07:00.507Z,101864.80
2019-04-20T08:09:37.937Z,101859.93
2019-04-20T08:12:34.075Z,101860.97
2019-04-20T08:15:03.771Z,101860.87
2019-04-20T08:17:37.415Z,101856.20
2019-04-20T08:20:05.727Z,101857.61
2019-04-20T08:22:42.191Z,101858.89
2019-04-20T08:25:08.302Z,101862.97
2019-04-20T08:27:46.653Z,101856.11
2019-04-20T08:30:55.742Z,101851.55
2019-04-20T08:33:33.647Z,101848.95
2019-04-20T08:36:13.537Z,101842.15
2019-04-20T08:41:08.273Z,101841.92
2019-04-20T08:46:20.712Z,101830.07
2019-04-20T08:48:51.013Z,101829.64
2019-04-20T08:51:26.025Z,101830.88
2019-04-20T08:53:56.384Z,101826.16
2019-04-20T08:56:30.209Z,101823.41
2019-04-20T08:58:48.349Z,101823.07
2019-04-20T09:01:26.573Z,101816.47
2019-04-20T09:04:02.470Z,101817.56
2019-04-20T09:06:40.021Z,101818.78
2019-04-20T09:09:34.830Z,101809.21
2019-04-20T09:11:55.632Z,101807.63
2019-04-20T09:14:21.319Z,101807.64
2019-04-20T09:17:07.272Z,101806.99
2019-04-20T09:19:46.943Z,101807.26
2019-04-20T09:22:40.531Z,101802.27
2019-04-20T09:25:43.047Z,101808.28
2019-04-20T09:27:51.697Z,101800.66
2019-04-20T09:30:30.332Z,101801.54
2019-04-20T09:33:14.585Z,101797.05
2019-04-20T09:35:42.958Z,101793.16
2019-04-20T09:38:13.488Z,101799.94
2019-04-20T09:40:50.751Z,101796.28
2019-04-20T09:43:32.320Z,101798.22
2019-04-20T09:46:08.064Z,101788.94
2019-04-20T09:48:42.633Z,101789.03
2019-04-20T09:51:30.692Z,101789.00
2019-04-20T09:53:54.862Z,101783.81
2019-04-20T09:56:33.356Z,101778.81
2019-04-20T09:59:12.245Z,101782.97
2019-04-20T10:01:35.096Z,101776.36
2019-04-20T10:04:01.291Z,101773.16
2019-04-20T10:06:35.900Z,101777.38
2019-04-20T10:09:09.671Z,101772.48
2019-04-20T10:11:44.199Z,101773.92
2019-04-20T10:14:16.459Z,101764.59
2019-04-20T10:16:49.722Z,101761.83
2019-04-20T10:19:26.550Z,101766.86
2019-04-20T10:21:56.889Z,101763.13
2019-04-20T10:24:30.538Z,101758.22
2019-04-20T10:27:03.050Z,101759.55
2019-04-20T10:29:35.576Z,101756.25
2019-04-20T10:32:12.537Z,101754.45
2019-04-20T10:34:41.157Z,101756.20
2019-04-20T10:37:23.911Z,101743.84
2019-04-20T10:39:56.603Z,101743.70
2019-04-20T10:42:30.155Z,101733.99
2019-04-20T10:45:04.144Z,101738.44
2019-04-20T10:47:37.113Z,101727.69
2019-04-20T10:50:11.313Z,101728.23
2019-04-20T10:52:43.716Z,101727.88
2019-04-20T10:55:16.507Z,101721.75
2019-04-20T10:57:49.384Z,101721.94
2019-04-20T11:00:41.806Z,101721.37
2019-04-20T11:03:17.617Z,101721.84
2019-04-20T11:05:50.972Z,101714.45
2019-04-20T11:08:24.401Z,101714.27
2019-04-20T11:11:07.054Z,101712.69
2019-04-20T11:13:30.919Z,101720.81
2019-04-20T11:16:04.198Z,101715.22
2019-04-20T11:18:37.698Z,101714.05
2019-04-20T11:21:11.427Z,101710.30
2019-04-20T11:23:44.485Z,101707.31
2019-04-20T11:26:18.023Z,101719.19
2019-04-20T11:28:50.464Z,101712.10
2019-04-20T11:31:26.811Z,101711.48
2019-04-20T11:33:58.325Z,101697.80
2019-04-20T11:36:31.023Z,101698.09
2019-04-20T11:39:04.954Z,101690.02
2019-04-20T11:41:38.988Z,101697.84
2019-04-20T11:44:11.751Z,101696.81
2019-04-20T11:46:44.928Z,101687.23
2019-04-20T11:49:17.485Z,101691.83
2019-04-20T11:51:49.848Z,101690.23
2019-04-20T11:54:24.237Z,101687.77
2019-04-20T11:56:57.406Z,101685.56
2019-04-20T11:59:30.604Z,101685.19
2019-04-20T12:02:26.935Z,101682.14
2019-04-20T12:05:10.087Z,101675.84
2019-04-20T12:07:40.575Z,101685.48
2019-04-20T12:10:18.717Z,101675.50
2019-04-20T12:12:50.463Z,101679.55
2019-04-20T12:15:20.472Z,101682.36
2019-04-20T12:17:53.666Z,101677.41
2019-04-20T12:20:26.936Z,101668.95
2019-04-20T12:23:00.237Z,101669.50
2019-04-20T12:25:34.555Z,101674.09
2019-04-20T12:28:07.473Z,101667.14
2019-04-20T12:30:39.828Z,101665.77
2019-04-20T12:33:13.454Z,101667.67
2019-04-20T12:35:45.424Z,101670.58
2019-04-20T12:38:19.006Z,101664.37
2019-04-20T12:40:52.349Z,101661.23
2019-04-20T12:43:25.542Z,101658.29
2019-04-20T12:45:57.946Z,101647.98
2019-04-20T12:48:31.488Z,101644.48
2019-04-20T12:51:03.851Z,101638.45
2019-04-20T12:53:36.224Z,101630.45
2019-04-20T12:56:08.657Z,101629.55
2019-04-20T12:58:43.358Z,101624.52
2019-04-20T13:01:17.233Z,101631.38
2019-04-20T13:03:48.070Z,101623.52
2019-04-20T13:06:19.989Z,101626.84
2019-04-20T13:08:56.866Z,101629.50
2019-04-20T13:11:49.441Z,101620.54
2019-04-20T13:15:26.454Z,101615.20
2019-04-20T13:18:01.220Z,101609.42
2019-04-20T13:20:34.117Z,101611.71
2019-04-20T13:23:10.990Z,101613.13
2019-04-20T13:25:43.392Z,101616.56
2019-04-20T13:28:15.308Z,101614.81
2019-04-20T13:30:48.055Z,101606.28
2019-04-20T13:33:20.200Z,101606.98
2019-04-20T13:35:52.570Z,101608.62
2019-04-20T13:38:25.580Z,101611.31
2019-04-20T13:40:57.856Z,101606.81
2019-04-20T13:43:30.054Z,101600.92
2019-04-20T13:46:02.902Z,101593.73
2019-04-20T13:48:35.333Z,101590.30
2019-04-20T13:51:07.872Z,101592.45
2019-04-20T13:53:41.053Z,101593.80
2019-04-20T13:56:16.165Z,101594.27
2019-04-20T13:59:03.438Z,101589.41
2019-04-20T14:01:59.075Z,101580.59
2019-04-20T14:04:34.803Z,101582.56
2019-04-20T14:07:06.887Z,101582.60
2019-04-20T14:09:39.752Z,101568.76
2019-04-20T14:12:22.488Z,101572.13
2019-04-20T14:14:46.825Z,101578.22
2019-04-20T14:17:19.626Z,101561.21
2019-04-20T14:19:52.900Z,101564.35
2019-04-20T14:22:25.000Z,101557.88
2019-04-20T14:24:57.339Z,101555.83
2019-04-20T14:27:30.830Z,101559.98
2019-04-20T14:30:03.523Z,101542.70
2019-04-20T14:32:36.863Z,101546.11
2019-04-20T14:35:11.355Z,101536.02
2019-04-20T14:37:44.007Z,101538.53
2019-04-20T14:40:16.660Z,101542.00
2019-04-20T14:42:52.990Z,101532.45
2019-04-20T14:45:22.940Z,101533.27
2019-04-20T14:47:55.090Z,101540.34
2019-04-20T14:50:27.618Z,101534.45
2019-04-20T14:53:00.019Z,101532.16
2019-04-20T14:55:31.824Z,101535.41
2019-04-20T14:58:09.078Z,101533.65
2019-04-20T15:00:56.602Z,101528.46
2019-04-20T15:03:40.915Z,101516.56
2019-04-20T15:06:13.663Z,101519.15
2019-04-20T15:08:45.790Z,101514.63
2019-04-20T15:11:18.762Z,101511.19
2019-04-20T15:13:50.952Z,101511.32
2019-04-20T15:16:22.772Z,101512.16
2019-04-20T15:19:25.734Z,101512.16
2019-04-20T15:21:59.799Z,101506.44
2019-04-20T15:24:31.986Z,101498.02
2019-04-20T15:27:04.758Z,101502.56
2019-04-20T15:29:38.194Z,101500.33
2019-04-20T15:32:10.309Z,101498.73
2019-04-20T15:34:42.748Z,101489.91
2019-04-20T15:37:16.082Z,101491.49
2019-04-20T15:39:48.381Z,101490.00
2019-04-20T15:42:21.245Z,101485.19
2019-04-20T15:44:53.566Z,101483.52
2019-04-20T15:47:25.884Z,101480.27
2019-04-20T15:49:58.115Z,101475.67
2019-04-20T15:52:36.727Z,101473.70
2019-04-20T15:55:11.812Z,101471.67
2019-04-20T15:57:38.687Z,101468.27
2019-04-20T16:00:11.766Z,101463.44
2019-04-20T16:02:51.437Z,101460.66
2019-04-20T16:05:40.926Z,101457.90
2019-04-20T16:08:24.184Z,101457.41
2019-04-20T16:10:57.197Z,101453.05
2019-04-20T16:13:36.058Z,101462.53
2019-04-20T16:16:03.821Z,101458.56
2019-04-20T16:18:37.035Z,101456.17
2019-04-20T16:21:14.275Z,101448.83
2019-04-20T16:23:55.058Z,101446.06
2019-04-20T16:26:47.481Z,101447.61
2019-04-20T16:29:21.837Z,101444.87
2019-04-20T16:31:54.383Z,101439.41
2019-04-20T16:34:27.600Z,101446.73
2019-04-20T16:37:00.156Z,101446.56
2019-04-20T16:39:32.523Z,101446.52
2019-04-20T16:42:06.510Z,101450.23
2019-04-20T16:44:39.022Z,101442.99
2019-04-20T16:47:12.300Z,101441.13
2019-04-20T16:49:44.346Z,101445.38
2019-04-20T16:52:16.912Z,101441.69
2019-04-20T16:54:50.029Z,101436.44
2019-04-20T16:57:23.573Z,101437.16
2019-04-20T16:59:57.774Z,101434.97
2019-04-20T17:02:29.924Z,101440.95
2019-04-20T17:05:03.044Z,101439.19
2019-04-20T17:07:42.826Z,101438.39
2019-04-20T17:10:17.932Z,101429.65
2019-04-20T17:12:51.440Z,101434.99
2019-04-20T17:15:25.555Z,101440.69
2019-04-20T17:17:58.950Z,101432.72
2019-04-20T17:20:32.754Z,101434.19
2019-04-20T17:23:08.362Z,101436.23
2019-04-20T17:25:39.840Z,101440.66
2019-04-20T17:28:40.656Z,101431.75
2019-04-20T17:31:31.529Z,101441.02
2019-04-20T17:34:27.037Z,101439.72
2019-04-20T17:36:46.362Z,101436.45
2019-04-20T17:39:30.244Z,101438.97
2019-04-20T17:42:10.036Z,101434.78
2019-04-20T17:44:41.252Z,101435.33
2019-04-20T17:47:20.468Z,101432.83
2019-04-20T17:49:51.578Z,101439.03
2019-04-20T17:52:27.800Z,101435.86
2019-04-20T17:54:47.550Z,101438.62
2019-04-20T17:57:19.574Z,101443.09
2019-04-20T17:59:59.927Z,101440.89
2019-04-20T18:03:00.575Z,101437.10
2019-04-20T18:05:39.097Z,101438.98
2019-04-20T18:08:19.351Z,101439.16
2019-04-20T18:10:37.915Z,101441.14
2019-04-20T18:13:07.062Z,101446.42
2019-04-20T18:15:49.835Z,101440.05
2019-04-20T18:18:44.113Z,101444.92
2019-04-20T18:21:26.686Z,101441.46
2019-04-20T18:23:58.671Z,101448.14
2019-04-20T18:26:47.947Z,101451.80
2019-04-20T18:29:28.087Z,101450.66
2019-04-20T18:31:47.326Z,101453.21
2019-04-20T18:34:38.248Z,101459.80
2019-04-20T18:37:16.419Z,101458.54
2019-04-20T18:39:54.766Z,101464.25
2019-04-20T18:42:28.379Z,101468.33
2019-04-20T18:45:09.073Z,101466.02
2019-04-20T18:47:45.540Z,101462.25
2019-04-20T18:50:11.741Z,101464.27
2019-04-20T18:52:35.684Z,101466.28
2019-04-20T18:55:17.394Z,101465.85
2019-04-20T18:57:43.456Z,101467.23
2019-04-20T19:00:27.997Z,101464.50
2019-04-20T19:02:57.749Z,101468.03
2019-04-20T19:05:29.500Z,101467.30
2019-04-20T19:08:06.809Z,101462.97
2019-04-20T19:10:38.629Z,101461.84
2019-04-20T19:13:22.438Z,101462.88
2019-04-20T19:16:16.579Z,101464.21
2019-04-20T19:19:03.957Z,101464.41
2019-04-20T19:21:26.994Z,101469.16
2019-04-20T19:24:06.595Z,101461.81
2019-04-20T19:26:34.199Z,101461.66
2019-04-20T19:29:14.017Z,101466.98
2019-04-20T19:31:57.321Z,101466.16
2019-04-20T19:34:31.488Z,101462.86
2019-04-20T19:37:00.853Z,101461.48
2019-04-20T19:39:40.233Z,101461.67
2019-04-20T19:42:13.141Z,101461.00
2019-04-20T19:44:44.945Z,101467.41
2019-04-20T19:47:25.996Z,101459.31
2019-04-20T19:49:45.007Z,101462.73
2019-04-20T19:52:36.787Z,101461.34
2019-04-20T19:55:02.551Z,101467.86
2019-04-20T19:57:39.841Z,101462.98
2019-04-20T19:59:55.538Z,101469.12
2019-04-20T20:02:25.945Z,101469.50
2019-04-20T20:05:04.703Z,101471.69
2019-04-20T20:07:38.857Z,101469.06
2019-04-20T20:10:08.908Z,101466.04
2019-04-20T20:12:49.366Z,101467.02
2019-04-20T20:15:24.221Z,101471.25
2019-04-20T20:18:10.955Z,101475.88
2019-04-20T20:20:47.626Z,101463.78
2019-04-20T20:23:00.113Z,101472.02
2019-04-20T20:25:38.422Z,101471.45
2019-04-20T20:28:20.249Z,101470.66
2019-04-20T20:30:53.642Z,101475.59
2019-04-20T20:33:36.299Z,101480.48
2019-04-20T20:35:58.355Z,101481.63
2019-04-20T20:38:31.301Z,101480.96
2019-04-20T20:41:05.701Z,101483.78
2019-04-20T20:43:44.660Z,101478.50
2019-04-20T20:46:16.249Z,101479.24
2019-04-20T20:49:03.740Z,101478.10
2019-04-20T20:51:39.411Z,101479.23
2019-04-20T20:53:57.920Z,101478.94
2019-04-20T20:56:27.725Z,101480.87
2019-04-20T20:59:00.732Z,101479.17
2019-04-20T21:01:39.566Z,101481.54
2019-04-20T21:04:02.538Z,101486.52
2019-04-20T21:06:34.983Z,101486.16
2019-04-20T21:09:08.421Z,101488.58
2019-04-20T21:11:42.333Z,101485.58
2019-04-20T21:14:21.063Z,101489.70
2019-04-20T21:16:56.977Z,101486.88
2019-04-20T21:19:41.794Z,101478.74
2019-04-20T21:22:04.833Z,101478.83
2019-04-20T21:24:36.138Z,101472.72
2019-04-20T21:27:13.327Z,101474.88
2019-04-20T21:29:48.642Z,101471.66
2019-04-20T21:32:18.035Z,101469.51
2019-04-20T21:34:55.624Z,101475.54
2019-04-20T21:37:26.941Z,101469.90
2019-04-20T21:40:00.555Z,101472.54
2019-04-20T21:42:39.638Z,101470.17
2019-04-20T21:45:10.316Z,101469.73
2019-04-20T21:47:41.761Z,101468.41
2019-04-20T21:50:34.204Z,101471.05
2019-04-20T21:52:51.958Z,101464.23
2019-04-20T21:55:21.774Z,101475.35
2019-04-20T21:57:58.462Z,101468.92
2019-04-20T22:00:42.680Z,101468.66
2019-04-20T22:03:15.536Z,101461.84
2019-04-20T22:05:48.487Z,101456.94
2019-04-20T22:08:22.096Z,101458.78
2019-04-20T22:10:55.355Z,101461.89
2019-04-20T22:13:33.394Z,101460.37
2019-04-20T22:16:06.489Z,101456.19
2019-04-20T22:18:48.205Z,101453.36
2019-04-20T22:21:19.869Z,101459.28
2019-04-20T22:23:59.847Z,101453.87
2019-04-20T22:26:26.720Z,101453.36
2019-04-20T22:28:52.133Z,101451.45
2019-04-20T22:31:24.363Z,101445.34
2019-04-20T22:34:02.240Z,101445.91
2019-04-20T22:36:35.599Z,101454.56
2019-04-20T22:39:13.663Z,101449.77
2019-04-20T22:41:54.652Z,101451.66
2019-04-20T22:44:26.662Z,101449.94
2019-04-20T22:46:58.477Z,101445.67
2019-04-20T22:49:45.754Z,101440.96
2019-04-20T22:52:24.075Z,101441.44
2019-04-20T22:54:54.737Z,101441.92
2019-04-20T22:57:27.725Z,101434.09
2019-04-20T22:59:54.418Z,101432.30
2019-04-20T23:02:22.548Z,101428.34
2019-04-20T23:04:54.931Z,101423.72
2019-04-20T23:07:28.410Z,101419.81
2019-04-20T23:10:03.244Z,101419.50
2019-04-20T23:12:35.760Z,101413.78
2019-04-20T23:15:10.374Z,101408.68
2019-04-20T23:17:45.866Z,101406.52
2019-04-20T23:20:25.241Z,101402.66
2019-04-20T23:22:51.761Z,101402.42
2019-04-20T23:25:25.109Z,101407.48
2019-04-20T23:28:00.564Z,101394.64
2019-04-20T23:30:34.494Z,101386.63
2019-04-20T23:33:04.380Z,101385.91
2019-04-20T23:35:37.508Z,101386.23
2019-04-20T23:38:14.357Z,101387.35
2019-04-20T23:40:45.832Z,101381.77
2019-04-20T23:43:28.855Z,101379.69
2019-04-20T23:46:29.366Z,101380.89
2019-04-20T23:49:24.038Z,101382.52
2019-04-20T23:52:09.972Z,101381.20
2019-04-20T23:54:29.366Z,101380.84
2019-04-20T23:56:59.695Z,101387.50
2019-04-20T23:59:38.032Z,101378.84
